LKP weather

Lake Placid Airport
Lake Placid, New York, United States

Public forecast

Using degrees Fahrenheit for public forecast. Weather courtesy of forecast.io.

Closest aviation weather report (METAR) to Lake Placid Airport

Closest report is Adirondack Regional Airport, 12.8 nm (23.6 km) NW. Retrieved 2020/05/31 21:51 UTC (47 minutes ago):

KSLK 312151Z AUTO VRB04KT 10SM BKN055 OVC070 08/M02 A3010 RMK AO2 SLP205 T00781022

Closest aviation forecast (TAF) to Lake Placid Airport

Closest forecast is Adirondack Regional Airport, 12.8 nm (23.6 km) NW. Retrieved 2020/05/31 18:33 UTC (4 hours ago):

TAF KSLK 311731Z 3118/0118 29009G16KT P6SM VCSH OVC040 TEMPO 3118/3122 6SM -SHRA BR BKN029 FM010000 VRB02KT P6SM OVC035 FM010700 00000KT P6SM SCT015 OVC025 FM011400 26007KT P6SM OVC040